Time;durP1;ratioP1;P1;durP2;ratioP2;P2;SDS_P1;SDS_P2;PMS_P1;PMS_P2;Temp;Humidity;BMP_temperature;BMP_pressure;BME280_temperature;BME280_humidity;BME280_pressure;Samples;Min_cycle;Max_cycle;Signal;HPM_P1;HPM_P2
2023/03/05 00:01:33;;;;;;;5.38;1.27;;;2.10;99.90;;;;;;4999868;28;20457;-52
2023/03/05 00:04:01;;;;;;;3.50;1.20;;;2.10;99.90;;;;;;4999999;28;20026;-53
2023/03/05 00:06:28;;;;;;;4.18;1.13;;;2.10;99.90;;;;;;4999736;28;20449;-52
2023/03/05 00:08:57;;;;;;;5.57;1.23;;;2.10;99.90;;;;;;5000181;28;20030;-55
2023/03/05 00:11:24;;;;;;;1.48;0.88;;;2.10;99.90;;;;;;4998482;28;20060;-55
2023/03/05 00:13:54;;;;;;;2.70;0.73;;;2.10;99.90;;;;;;5000010;28;20114;-56
2023/03/05 00:16:21;;;;;;;4.85;1.17;;;2.10;99.90;;;;;;4998581;28;20035;-54
2023/03/05 00:18:46;;;;;;;6.50;1.67;;;2.10;99.90;;;;;;4998960;28;20030;-55
2023/03/05 00:21:26;;;;;;;7.05;1.70;;;2.10;99.90;;;;;;4999150;28;20432;-54
2023/03/05 00:23:53;;;;;;;6.63;1.83;;;2.10;99.90;;;;;;4997183;28;20454;-51
2023/03/05 00:26:20;;;;;;;2.05;0.75;;;2.10;99.90;;;;;;4998933;28;20033;-54
2023/03/05 00:28:48;;;;;;;5.20;1.65;;;2.20;99.90;;;;;;4998733;28;20400;-56
2023/03/05 00:31:16;;;;;;;6.30;1.33;;;2.10;99.90;;;;;;4998885;28;20030;-55
2023/03/05 00:33:42;;;;;;;5.95;1.20;;;2.10;99.90;;;;;;4998168;28;20100;-51
2023/03/05 00:36:08;;;;;;;5.70;1.58;;;2.20;99.90;;;;;;4998071;28;20101;-52
2023/03/05 00:38:34;;;;;;;3.42;0.90;;;2.20;99.90;;;;;;4997372;28;20374;-53
2023/03/05 00:41:00;;;;;;;2.15;0.70;;;2.20;99.90;;;;;;4998222;28;20055;-53
2023/03/05 00:43:26;;;;;;;6.55;1.02;;;2.20;99.90;;;;;;4999084;28;20029;-54
2023/03/05 00:45:52;;;;;;;5.18;1.00;;;2.20;99.90;;;;;;4998647;28;20022;-55
2023/03/05 00:48:18;;;;;;;10.57;1.83;;;2.20;99.90;;;;;;4999248;28;20036;-54
2023/03/05 00:50:44;;;;;;;5.38;1.35;;;2.20;99.90;;;;;;4999802;28;20026;-51
2023/03/05 00:53:09;;;;;;;4.90;1.10;;;2.20;99.90;;;;;;5000036;28;20026;-56
2023/03/05 00:55:35;;;;;;;2.70;0.82;;;2.20;99.90;;;;;;4998217;28;20030;-53
2023/03/05 00:58:01;;;;;;;7.15;1.15;;;2.20;99.90;;;;;;4998601;28;20442;-57
2023/03/05 01:00:27;;;;;;;7.72;1.48;;;2.10;99.90;;;;;;4998773;28;20023;-56
2023/03/05 01:02:52;;;;;;;4.20;1.20;;;2.10;99.90;;;;;;4999069;28;20018;-53
2023/03/05 01:05:18;;;;;;;8.60;1.25;;;2.00;99.90;;;;;;4998659;28;20046;-54
2023/03/05 01:07:44;;;;;;;5.85;1.10;;;2.00;99.90;;;;;;4998637;28;20034;-53
2023/03/05 01:10:10;;;;;;;4.13;1.25;;;1.90;99.90;;;;;;4998111;28;20104;-54
2023/03/05 01:12:36;;;;;;;3.53;0.98;;;1.90;99.90;;;;;;4997540;28;20438;-54
2023/03/05 01:15:04;;;;;;;4.70;1.30;;;1.90;99.90;;;;;;4999084;28;20030;-58
2023/03/05 01:17:29;;;;;;;2.80;0.93;;;1.90;99.90;;;;;;4998624;28;20528;-57
2023/03/05 01:19:55;;;;;;;4.95;1.13;;;1.80;99.90;;;;;;4998262;28;20057;-55
2023/03/05 01:22:20;;;;;;;2.70;0.98;;;1.80;99.90;;;;;;4998113;28;20369;-53
2023/03/05 01:24:46;;;;;;;3.40;1.05;;;1.70;99.90;;;;;;4996982;28;20109;-53
2023/03/05 01:27:11;;;;;;;5.18;1.25;;;1.70;99.90;;;;;;4997261;28;20370;-57
2023/03/05 01:29:37;;;;;;;6.60;1.23;;;1.60;99.90;;;;;;4997585;28;20141;-55
2023/03/05 01:32:03;;;;;;;3.75;1.08;;;1.60;99.90;;;;;;4999377;28;20042;-56
2023/03/05 01:34:28;;;;;;;2.60;1.13;;;1.60;99.90;;;;;;4997503;28;20385;-55
2023/03/05 01:36:54;;;;;;;5.18;1.40;;;1.60;99.90;;;;;;4996664;28;20488;-54
2023/03/05 01:39:20;;;;;;;5.80;1.02;;;1.60;99.90;;;;;;4997332;28;20432;-56
2023/03/05 01:41:46;;;;;;;8.13;1.83;;;1.60;99.90;;;;;;4992359;28;20042;-55
2023/03/05 01:44:58;;;;;;;5.50;1.33;;;1.50;99.90;;;;;;4998554;28;20523;-58
2023/03/05 01:47:23;;;;;;;6.22;1.23;;;1.50;99.90;;;;;;4989527;28;20051;-55
2023/03/05 01:49:49;;;;;;;3.90;1.40;;;1.50;99.90;;;;;;4997792;28;20015;-52
2023/03/05 01:52:20;;;;;;;3.42;1.67;;;1.50;99.90;;;;;;4998398;28;20113;-55
2023/03/05 01:54:51;;;;;;;13.95;2.15;;;1.50;99.90;;;;;;4997518;28;20022;-53
2023/03/05 01:57:24;;;;;;;7.07;1.42;;;1.50;99.90;;;;;;4995989;28;20034;-53
2023/03/05 01:59:55;;;;;;;7.40;1.77;;;1.50;99.90;;;;;;4994420;28;20042;-54
2023/03/05 02:02:21;;;;;;;7.03;1.38;;;1.50;99.90;;;;;;4995276;28;20045;-57
2023/03/05 02:04:56;;;;;;;2.13;1.08;;;1.50;99.90;;;;;;4996748;28;20029;-53
2023/03/05 02:07:22;;;;;;;5.72;1.50;;;1.50;99.90;;;;;;4997749;28;20030;-55
2023/03/05 02:09:48;;;;;;;3.60;1.05;;;1.50;99.90;;;;;;4997259;28;20455;-53
2023/03/05 02:12:14;;;;;;;6.95;1.23;;;1.50;99.90;;;;;;4996719;28;20460;-52
2023/03/05 02:14:42;;;;;;;1.75;0.75;;;1.50;99.90;;;;;;4997885;28;20027;-52
2023/03/05 02:17:09;;;;;;;8.77;1.15;;;1.40;99.90;;;;;;4996905;28;20057;-55
2023/03/05 02:19:53;;;;;;;3.30;1.00;;;1.40;99.90;;;;;;4997045;28;20088;-56
2023/03/05 02:22:21;;;;;;;4.43;1.75;;;1.40;99.90;;;;;;4999717;28;20040;-52
2023/03/05 02:24:46;;;;;;;1.92;1.27;;;1.40;99.90;;;;;;5001137;28;20018;-55
2023/03/05 02:27:13;;;;;;;5.78;1.55;;;1.40;99.90;;;;;;5001650;28;20485;-55
2023/03/05 02:29:42;;;;;;;7.32;1.40;;;1.40;99.90;;;;;;5001425;28;20034;-52
2023/03/05 02:32:08;;;;;;;4.88;1.58;;;1.40;99.90;;;;;;4999398;28;20496;-55
2023/03/05 02:34:34;;;;;;;6.32;1.70;;;1.40;99.90;;;;;;5001093;28;20029;-55
2023/03/05 02:37:03;;;;;;;5.75;1.48;;;1.40;99.90;;;;;;5000291;28;20444;-57
2023/03/05 02:39:29;;;;;;;8.40;1.48;;;1.40;99.90;;;;;;5000444;28;20044;-57
2023/03/05 02:41:55;;;;;;;4.65;1.75;;;1.40;99.90;;;;;;4999316;28;20026;-55
2023/03/05 02:44:20;;;;;;;1.98;1.40;;;1.40;99.90;;;;;;5001565;28;20476;-54
2023/03/05 02:46:46;;;;;;;4.32;1.40;;;1.40;99.90;;;;;;5001314;28;20030;-52
2023/03/05 02:49:11;;;;;;;2.55;0.90;;;1.40;99.90;;;;;;5001329;28;21017;-55
2023/03/05 02:51:37;;;;;;;4.53;0.80;;;1.40;99.90;;;;;;5000163;28;20173;-58
2023/03/05 02:54:03;;;;;;;4.97;1.10;;;1.30;99.90;;;;;;5001350;28;20551;-54
2023/03/05 02:56:28;;;;;;;4.28;1.13;;;1.30;99.90;;;;;;5000760;28;20045;-58
2023/03/05 02:58:54;;;;;;;3.88;0.80;;;1.20;99.90;;;;;;5000544;28;20026;-58
2023/03/05 03:01:19;;;;;;;1.67;0.60;;;1.30;99.90;;;;;;5001948;28;20026;-58
2023/03/05 03:03:45;;;;;;;3.42;1.10;;;1.30;99.90;;;;;;5000624;28;20038;-58
2023/03/05 03:06:11;;;;;;;2.33;0.93;;;1.30;99.90;;;;;;5000801;28;20033;-55
2023/03/05 03:08:36;;;;;;;2.10;1.10;;;1.30;99.90;;;;;;5001715;28;20019;-55
2023/03/05 03:11:07;;;;;;;1.63;0.70;;;1.30;99.90;;;;;;5001128;28;20030;-56
2023/03/05 03:13:32;;;;;;;1.92;0.98;;;1.30;99.90;;;;;;4998595;28;20085;-57
2023/03/05 03:16:10;;;;;;;6.55;1.35;;;1.20;99.90;;;;;;5000147;28;20061;-56
2023/03/05 03:18:36;;;;;;;0.93;0.77;;;1.20;99.90;;;;;;4999341;28;20507;-55
2023/03/05 03:21:02;;;;;;;3.47;1.15;;;1.20;99.90;;;;;;4999641;28;20026;-56
2023/03/05 03:23:28;;;;;;;5.53;0.95;;;1.20;99.90;;;;;;5000843;28;20452;-54
2023/03/05 03:25:54;;;;;;;1.83;0.82;;;1.10;99.90;;;;;;5000598;28;20535;-58
2023/03/05 03:28:19;;;;;;;1.15;0.57;;;1.10;99.90;;;;;;5000831;28;20030;-57
2023/03/05 03:30:45;;;;;;;1.45;0.73;;;1.00;99.90;;;;;;4999989;28;20034;-58
2023/03/05 03:33:11;;;;;;;3.42;0.98;;;1.00;99.90;;;;;;4999547;28;20046;-57
2023/03/05 03:35:37;;;;;;;2.15;0.80;;;1.00;99.90;;;;;;5000794;28;20030;-57
2023/03/05 03:38:02;;;;;;;2.10;0.77;;;0.90;99.90;;;;;;4998222;28;20034;-55
2023/03/05 03:40:28;;;;;;;1.33;0.68;;;0.90;99.90;;;;;;4999205;28;20034;-58
2023/03/05 03:42:54;;;;;;;3.13;1.25;;;0.90;99.90;;;;;;5000722;28;20026;-56
2023/03/05 03:45:21;;;;;;;7.20;1.08;;;0.90;99.90;;;;;;4999804;28;20574;-56
2023/03/05 03:47:50;;;;;;;2.13;1.55;;;0.90;99.90;;;;;;5000096;28;20511;-54
2023/03/05 03:50:16;;;;;;;3.58;1.42;;;0.90;99.90;;;;;;4999425;28;20102;-55
2023/03/05 03:52:42;;;;;;;2.85;1.15;;;0.90;99.90;;;;;;5000850;28;20046;-57
2023/03/05 03:55:08;;;;;;;2.85;1.20;;;0.80;99.90;;;;;;5000935;28;20053;-53
2023/03/05 03:57:35;;;;;;;2.50;1.60;;;0.80;99.90;;;;;;4999456;28;20030;-55
2023/03/05 04:00:00;;;;;;;2.58;1.33;;;0.80;99.90;;;;;;5000025;28;20022;-55
2023/03/05 04:02:26;;;;;;;4.63;1.40;;;0.80;99.90;;;;;;4998255;28;20030;-53
2023/03/05 04:04:52;;;;;;;2.63;0.85;;;0.80;99.90;;;;;;5000007;28;20050;-54
2023/03/05 04:07:18;;;;;;;1.13;1.05;;;0.90;99.90;;;;;;4999903;28;20046;-58
2023/03/05 04:09:44;;;;;;;2.35;1.42;;;0.90;99.90;;;;;;4998327;28;20026;-55
2023/03/05 04:12:10;;;;;;;3.28;1.02;;;0.90;99.90;;;;;;5000318;28;20377;-56
2023/03/05 04:14:35;;;;;;;2.58;0.95;;;0.90;99.90;;;;;;4998806;28;20398;-57
2023/03/05 04:17:01;;;;;;;2.20;1.17;;;0.90;99.90;;;;;;5000035;28;20579;-54
2023/03/05 04:19:29;;;;;;;0.73;0.70;;;0.90;99.90;;;;;;4998466;28;20034;-56
2023/03/05 04:21:56;;;;;;;3.05;1.17;;;0.80;99.90;;;;;;4998701;28;20692;-56
2023/03/05 04:24:21;;;;;;;5.13;1.20;;;0.80;99.90;;;;;;4998379;28;20022;-56
2023/03/05 04:26:47;;;;;;;5.03;1.52;;;0.80;99.90;;;;;;4999031;28;20442;-54
2023/03/05 04:29:12;;;;;;;4.75;1.00;;;0.80;99.90;;;;;;4998944;28;20030;-57
2023/03/05 04:31:38;;;;;;;3.08;1.15;;;0.80;99.90;;;;;;4998780;28;20034;-57
2023/03/05 04:34:03;;;;;;;2.83;1.25;;;0.80;99.90;;;;;;4998570;28;20062;-57
2023/03/05 04:36:29;;;;;;;4.35;1.50;;;0.80;99.90;;;;;;4996205;28;20448;-57
2023/03/05 04:38:54;;;;;;;2.63;0.88;;;0.90;99.90;;;;;;4999161;28;20034;-56
2023/03/05 04:41:20;;;;;;;5.85;0.90;;;0.80;99.90;;;;;;4997926;28;20118;-57
2023/03/05 04:43:45;;;;;;;1.58;0.90;;;0.80;99.90;;;;;;4997212;28;20053;-58
2023/03/05 04:46:11;;;;;;;1.08;0.45;;;0.80;99.90;;;;;;4998549;28;20041;-58
2023/03/05 04:48:36;;;;;;;3.15;0.80;;;0.80;99.90;;;;;;4998797;28;20450;-56
2023/03/05 04:51:02;;;;;;;0.82;0.68;;;0.80;99.90;;;;;;4998420;28;20066;-55
2023/03/05 04:53:28;;;;;;;3.45;0.43;;;0.80;99.90;;;;;;4999361;28;20026;-59
2023/03/05 04:55:54;;;;;;;0.65;0.45;;;0.90;99.90;;;;;;4999117;28;20108;-58
2023/03/05 04:58:21;;;;;;;6.35;1.13;;;0.80;99.90;;;;;;5000290;28;20030;-55
2023/03/05 05:00:46;;;;;;;1.70;0.60;;;0.90;99.90;;;;;;4995792;28;20030;-56
2023/03/05 05:03:12;;;;;;;3.55;0.75;;;0.80;99.90;;;;;;4998718;28;20112;-58
2023/03/05 05:05:38;;;;;;;4.32;0.95;;;0.90;99.90;;;;;;4997793;28;20061;-56
2023/03/05 05:08:03;;;;;;;3.58;0.47;;;0.80;99.90;;;;;;4997771;28;20481;-55
2023/03/05 05:10:30;;;;;;;1.27;0.32;;;0.80;99.90;;;;;;4998171;28;20027;-55
2023/03/05 05:12:56;;;;;;;2.42;0.85;;;0.80;99.90;;;;;;4996833;28;20028;-57
2023/03/05 05:15:21;;;;;;;2.92;0.65;;;0.80;99.90;;;;;;4997847;28;20037;-57
2023/03/05 05:17:47;;;;;;;4.97;1.00;;;0.80;99.90;;;;;;4997984;28;20030;-57
2023/03/05 05:20:14;;;;;;;2.13;0.90;;;0.80;99.90;;;;;;4996014;28;20030;-57
2023/03/05 05:22:40;;;;;;;0.93;0.60;;;0.80;99.90;;;;;;4997483;28;20085;-56
2023/03/05 05:25:06;;;;;;;0.70;0.57;;;0.80;99.90;;;;;;4998510;28;20030;-55
2023/03/05 05:27:32;;;;;;;3.60;1.10;;;0.80;99.90;;;;;;4998608;28;20026;-58
2023/03/05 05:29:57;;;;;;;2.60;0.85;;;0.80;99.90;;;;;;4999322;28;20021;-56
2023/03/05 05:32:24;;;;;;;2.35;1.00;;;0.70;99.90;;;;;;4997809;28;20032;-57
2023/03/05 05:34:57;;;;;;;6.57;1.67;;;0.70;99.90;;;;;;4995534;28;20365;-57
2023/03/05 05:37:23;;;;;;;5.22;2.00;;;0.70;99.90;;;;;;4997486;28;20038;-54
2023/03/05 05:39:49;;;;;;;1.88;1.55;;;0.70;99.90;;;;;;4995653;28;20014;-54
2023/03/05 05:42:17;;;;;;;3.05;1.73;;;0.70;99.90;;;;;;4996668;28;20061;-57
2023/03/05 05:44:43;;;;;;;7.60;1.67;;;0.70;99.90;;;;;;4997165;28;20022;-55
2023/03/05 05:47:08;;;;;;;5.40;2.03;;;0.80;99.90;;;;;;4996959;28;20070;-55
2023/03/05 05:49:34;;;;;;;6.05;2.20;;;0.70;99.90;;;;;;4997538;28;20045;-58
2023/03/05 05:52:00;;;;;;;7.90;2.50;;;0.70;99.90;;;;;;4998359;28;20018;-55
2023/03/05 05:54:25;;;;;;;3.38;1.98;;;0.70;99.90;;;;;;4997239;28;20022;-55
2023/03/05 05:56:51;;;;;;;4.10;2.00;;;0.80;99.90;;;;;;4996213;28;20085;-52
2023/03/05 05:59:16;;;;;;;7.38;2.38;;;0.70;99.90;;;;;;4998847;28;20077;-53
2023/03/05 06:01:42;;;;;;;5.90;2.20;;;0.80;99.90;;;;;;4999034;28;20480;-56
2023/03/05 06:04:07;;;;;;;6.10;2.42;;;0.80;99.90;;;;;;4998731;28;20041;-55
2023/03/05 06:06:36;;;;;;;4.38;1.83;;;0.80;99.90;;;;;;4999045;28;20029;-54
2023/03/05 06:09:02;;;;;;;5.28;3.40;;;0.80;99.90;;;;;;4996434;28;20472;-54
2023/03/05 06:11:28;;;;;;;7.03;2.65;;;0.80;99.90;;;;;;4997392;28;20116;-56
2023/03/05 06:13:54;;;;;;;3.50;1.85;;;0.80;99.90;;;;;;4998294;28;20097;-53
2023/03/05 06:16:22;;;;;;;4.00;1.77;;;0.80;99.90;;;;;;4997908;28;20034;-51
2023/03/05 06:18:49;;;;;;;4.05;1.77;;;0.80;99.90;;;;;;4996115;28;20049;-54
2023/03/05 06:21:17;;;;;;;5.13;1.95;;;0.80;99.90;;;;;;4995925;28;20377;-54
2023/03/05 06:23:44;;;;;;;6.57;2.13;;;0.80;99.90;;;;;;4997612;28;20026;-56
2023/03/05 06:26:11;;;;;;;6.97;1.38;;;0.90;99.90;;;;;;4996273;28;20040;-57
2023/03/05 06:28:37;;;;;;;7.07;1.50;;;0.90;99.90;;;;;;4995528;28;20022;-56
2023/03/05 06:31:10;;;;;;;5.55;0.98;;;0.90;99.90;;;;;;4997090;28;20088;-56
2023/03/05 06:33:37;;;;;;;5.07;1.50;;;0.90;99.90;;;;;;4997236;28;20022;-56
2023/03/05 06:36:04;;;;;;;3.92;1.20;;;0.90;99.90;;;;;;4995239;28;20198;-57
2023/03/05 06:38:30;;;;;;;2.17;0.95;;;0.90;99.90;;;;;;4994890;28;20135;-54
2023/03/05 06:41:08;;;;;;;4.53;0.88;;;0.90;99.90;;;;;;4996449;28;20034;-54
2023/03/05 06:43:36;;;;;;;3.92;1.10;;;1.00;99.90;;;;;;4996556;28;20113;-55
2023/03/05 06:46:07;;;;;;;1.08;0.82;;;1.00;99.90;;;;;;4996556;28;20030;-57
2023/03/05 06:48:33;;;;;;;5.25;1.08;;;1.00;99.90;;;;;;4997201;28;20049;-53
2023/03/05 06:50:58;;;;;;;4.70;1.27;;;1.10;99.90;;;;;;4996363;28;20397;-57
2023/03/05 06:53:25;;;;;;;3.50;0.80;;;1.10;99.90;;;;;;4996804;28;20030;-56
2023/03/05 06:55:51;;;;;;;1.55;0.70;;;1.10;99.90;;;;;;4995901;28;20045;-56
2023/03/05 06:58:17;;;;;;;6.47;1.38;;;1.10;99.90;;;;;;4996433;28;20041;-57
2023/03/05 07:00:43;;;;;;;2.63;0.82;;;1.20;99.90;;;;;;4997221;28;20022;-57
2023/03/05 07:03:09;;;;;;;2.75;0.85;;;1.20;99.90;;;;;;4997493;28;20576;-58
2023/03/05 07:05:42;;;;;;;5.88;0.80;;;1.30;99.90;;;;;;4997233;28;20093;-54
2023/03/05 07:08:08;;;;;;;3.30;0.77;;;1.30;99.90;;;;;;4997142;28;20042;-58
2023/03/05 07:10:39;;;;;;;4.75;1.52;;;1.30;99.90;;;;;;5000586;28;20102;-58
2023/03/05 07:13:05;;;;;;;5.43;0.93;;;1.30;99.90;;;;;;5000472;28;20018;-55
2023/03/05 07:15:30;;;;;;;5.90;1.25;;;1.40;99.90;;;;;;5000758;28;20031;-58
2023/03/05 07:17:56;;;;;;;3.60;1.02;;;1.40;99.90;;;;;;4999855;28;20108;-57
2023/03/05 07:20:22;;;;;;;6.93;1.33;;;1.40;99.90;;;;;;4998360;28;20053;-56
2023/03/05 07:22:47;;;;;;;3.42;1.25;;;1.50;99.90;;;;;;4997401;28;20037;-59
2023/03/05 07:25:18;;;;;;;5.55;0.95;;;1.50;99.90;;;;;;4999458;28;20476;-58
2023/03/05 07:27:43;;;;;;;1.90;0.57;;;1.50;99.90;;;;;;5000546;28;20049;-57
2023/03/05 07:30:09;;;;;;;2.63;0.68;;;1.50;99.90;;;;;;5000841;28;20551;-57
2023/03/05 07:32:35;;;;;;;2.38;0.70;;;1.60;99.90;;;;;;5000431;28;20118;-60
2023/03/05 07:35:01;;;;;;;1.60;0.60;;;1.70;99.90;;;;;;5000587;28;20097;-60
2023/03/05 07:37:26;;;;;;;3.50;0.70;;;1.70;99.90;;;;;;5000952;28;20391;-58
2023/03/05 07:39:52;;;;;;;1.63;0.77;;;1.70;99.90;;;;;;5000130;28;20029;-57
2023/03/05 07:42:17;;;;;;;1.42;0.55;;;1.70;99.90;;;;;;4998701;28;20419;-59
2023/03/05 07:44:43;;;;;;;6.70;1.17;;;1.70;99.90;;;;;;5000045;28;20477;-59
2023/03/05 07:47:08;;;;;;;4.43;0.75;;;1.70;99.90;;;;;;4999533;28;20488;-59
2023/03/05 07:49:34;;;;;;;3.20;0.75;;;1.70;99.90;;;;;;4999292;28;20081;-60
2023/03/05 07:51:59;;;;;;;1.38;0.75;;;1.80;99.90;;;;;;5001206;28;20018;-60
2023/03/05 07:54:25;;;;;;;0.85;0.32;;;1.80;99.90;;;;;;4998717;28;20083;-59
2023/03/05 07:56:53;;;;;;;2.25;0.82;;;1.80;99.90;;;;;;4997942;28;20028;-56
2023/03/05 07:59:19;;;;;;;1.42;0.50;;;1.90;99.90;;;;;;4999689;28;20040;-59
2023/03/05 08:01:45;;;;;;;4.22;1.25;;;1.90;99.90;;;;;;4998109;28;20392;-58
2023/03/05 08:04:10;;;;;;;2.13;0.70;;;2.00;99.90;;;;;;5000542;28;20514;-58
2023/03/05 08:06:40;;;;;;;1.23;0.52;;;2.00;99.90;;;;;;4998587;28;20048;-55
2023/03/05 08:09:06;;;;;;;4.22;0.80;;;2.20;99.90;;;;;;4998634;28;20054;-59
2023/03/05 08:11:32;;;;;;;3.20;0.45;;;2.30;99.90;;;;;;4997911;28;20061;-60
2023/03/05 08:13:58;;;;;;;6.35;0.77;;;2.30;99.90;;;;;;4999445;28;20480;-60
2023/03/05 08:16:27;;;;;;;2.53;0.80;;;2.30;99.90;;;;;;4997684;28;20058;-58
2023/03/05 08:18:56;;;;;;;3.58;1.35;;;2.30;99.90;;;;;;4999907;28;20384;-56
2023/03/05 08:21:28;;;;;;;2.90;0.63;;;2.40;99.90;;;;;;4998165;28;20332;-59
2023/03/05 08:23:57;;;;;;;1.73;0.55;;;2.50;99.90;;;;;;4998997;28;20477;-57
2023/03/05 08:26:25;;;;;;;3.58;1.17;;;2.50;99.90;;;;;;4999767;28;20030;-57
2023/03/05 08:28:51;;;;;;;3.35;0.70;;;2.60;99.90;;;;;;4999213;28;20496;-59
2023/03/05 08:31:20;;;;;;;1.67;0.82;;;2.60;99.90;;;;;;5000699;28;20022;-57
2023/03/05 08:33:47;;;;;;;8.20;1.40;;;2.60;99.90;;;;;;4999226;28;20025;-58
2023/03/05 08:36:13;;;;;;;3.38;1.02;;;2.70;99.90;;;;;;4997303;28;20654;-58
2023/03/05 08:38:38;;;;;;;3.72;0.80;;;2.70;99.90;;;;;;4998495;28;20030;-58
2023/03/05 08:41:04;;;;;;;2.60;0.85;;;2.80;99.90;;;;;;4999359;28;20397;-60
2023/03/05 08:43:30;;;;;;;1.73;0.80;;;2.80;99.90;;;;;;5000420;28;20026;-60
2023/03/05 08:45:56;;;;;;;3.90;0.75;;;2.80;99.90;;;;;;4997616;28;20448;-60
2023/03/05 08:48:22;;;;;;;4.47;0.95;;;2.90;99.90;;;;;;4998384;28;20025;-59
2023/03/05 08:50:48;;;;;;;2.95;0.60;;;3.00;99.90;;;;;;4998381;28;20037;-58
2023/03/05 08:53:14;;;;;;;3.60;0.75;;;2.90;99.90;;;;;;4997774;28;20481;-60
2023/03/05 08:55:39;;;;;;;0.65;0.60;;;2.90;99.90;;;;;;4996687;28;20035;-60
2023/03/05 08:58:05;;;;;;;3.83;0.85;;;3.00;99.90;;;;;;4999155;28;20026;-58
2023/03/05 09:00:30;;;;;;;2.08;0.90;;;3.20;99.90;;;;;;4997538;28;20124;-57
2023/03/05 09:02:56;;;;;;;1.50;0.88;;;3.20;99.90;;;;;;4997434;28;20022;-59
2023/03/05 09:05:22;;;;;;;4.47;1.10;;;3.30;99.90;;;;;;4998025;28;20030;-60
2023/03/05 09:07:47;;;;;;;2.80;1.33;;;3.30;99.90;;;;;;4998785;28;20101;-57
2023/03/05 09:10:13;;;;;;;5.70;1.52;;;3.30;99.90;;;;;;4996807;28;20092;-58
2023/03/05 09:12:42;;;;;;;3.80;0.98;;;3.30;99.90;;;;;;4998023;28;20444;-59
2023/03/05 09:15:09;;;;;;;2.55;0.90;;;3.30;99.90;;;;;;4997575;28;20121;-57
2023/03/05 09:17:36;;;;;;;2.58;1.30;;;3.40;99.90;;;;;;4999919;28;20379;-61
2023/03/05 09:20:03;;;;;;;3.85;1.10;;;3.50;99.90;;;;;;4996479;28;20496;-59
2023/03/05 09:22:29;;;;;;;3.17;1.00;;;3.50;99.90;;;;;;4998811;28;20026;-57
2023/03/05 09:24:54;;;;;;;4.22;1.17;;;3.40;99.90;;;;;;4997623;28;20026;-58
2023/03/05 09:27:20;;;;;;;1.55;1.08;;;3.40;99.90;;;;;;4996916;28;20061;-58
2023/03/05 09:29:46;;;;;;;2.55;1.10;;;3.50;99.90;;;;;;4997662;28;20098;-60
2023/03/05 09:32:11;;;;;;;3.42;1.13;;;3.50;99.90;;;;;;4996988;28;20053;-60
2023/03/05 09:34:37;;;;;;;3.92;1.27;;;3.60;99.90;;;;;;4998076;28;20512;-58
2023/03/05 09:37:03;;;;;;;3.42;1.10;;;3.50;99.90;;;;;;4994771;28;20030;-59
2023/03/05 09:39:28;;;;;;;5.90;1.30;;;3.60;99.90;;;;;;4997632;28;20044;-60
2023/03/05 09:42:06;;;;;;;9.00;1.73;;;3.60;99.90;;;;;;4998745;28;20026;-57
2023/03/05 09:44:50;;;;;;;1.95;1.17;;;3.50;99.90;;;;;;4998311;28;20403;-60
2023/03/05 09:47:47;;;;;;;2.78;1.15;;;3.50;99.90;;;;;;4998361;28;20034;-60
2023/03/05 09:50:40;;;;;;;5.10;1.90;;;3.50;99.90;;;;;;4998769;28;20369;-60
2023/03/05 09:53:19;;;;;;;2.95;1.98;;;3.50;99.90;;;;;;4997972;28;20612;-60
2023/03/05 09:55:49;;;;;;;3.95;1.38;;;3.60;99.90;;;;;;4995980;28;20037;-58
2023/03/05 09:58:23;;;;;;;2.03;0.98;;;3.50;99.90;;;;;;4997935;28;20042;-59
2023/03/05 10:00:52;;;;;;;1.17;0.70;;;3.40;99.90;;;;;;4997943;28;20328;-60
2023/03/05 10:03:48;;;;;;;3.50;1.33;;;3.30;99.90;;;;;;4997972;28;20098;-56
2023/03/05 10:06:32;;;;;;;3.10;1.20;;;3.10;99.90;;;;;;4997517;28;20092;-55
2023/03/05 10:09:07;;;;;;;4.82;1.40;;;3.00;99.90;;;;;;4997557;28;20092;-54
2023/03/05 10:11:41;;;;;;;5.20;2.00;;;3.00;99.90;;;;;;4997563;28;20362;-55
2023/03/05 10:14:40;;;;;;;4.60;1.75;;;2.90;99.90;;;;;;4996383;28;20018;-59
2023/03/05 10:17:15;;;;;;;5.65;2.67;;;2.90;99.90;;;;;;4984657;28;20042;-59
2023/03/05 10:20:19;;;;;;;3.72;1.25;;;3.00;99.90;;;;;;4995744;28;20120;-59
2023/03/05 10:23:23;;;;;;;4.30;1.00;;;3.20;99.90;;;;;;4995004;28;20405;-56
2023/03/05 10:26:16;;;;;;;2.90;1.15;;;3.40;99.90;;;;;;4983107;28;20062;-59
2023/03/05 10:28:50;;;;;;;5.53;1.08;;;3.50;99.90;;;;;;4997547;28;20342;-57
2023/03/05 10:31:35;;;;;;;1.55;1.08;;;3.60;99.90;;;;;;4997992;28;20026;-58
2023/03/05 10:34:34;;;;;;;5.28;1.35;;;3.80;99.90;;;;;;4996813;28;20014;-57
2023/03/05 10:37:26;;;;;;;4.35;1.38;;;4.00;99.90;;;;;;4993490;28;20548;-59
2023/03/05 10:39:58;;;;;;;2.13;1.13;;;4.10;99.90;;;;;;4983334;28;20124;-59
2023/03/05 10:43:02;;;;;;;7.15;1.15;;;4.20;99.90;;;;;;4998006;28;20041;-57
2023/03/05 10:45:50;;;;;;;3.75;1.25;;;4.20;99.90;;;;;;5000608;28;20030;-56
2023/03/05 10:48:30;;;;;;;3.05;0.75;;;4.20;99.90;;;;;;5000710;28;20036;-56
2023/03/05 10:51:36;;;;;;;3.80;1.10;;;4.10;99.90;;;;;;5000782;28;20018;-61
2023/03/05 10:54:28;;;;;;;2.03;0.77;;;4.10;99.90;;;;;;5000395;28;20030;-59
2023/03/05 10:57:15;;;;;;;1.55;1.05;;;4.20;99.90;;;;;;4998565;28;20497;-60
2023/03/05 10:59:47;;;;;;;3.38;1.55;;;4.10;99.90;;;;;;4999718;28;20024;-60
2023/03/05 11:02:12;;;;;;;1.95;1.38;;;4.10;99.90;;;;;;5001943;28;20022;-60
2023/03/05 11:04:39;;;;;;;5.85;1.23;;;4.00;99.90;;;;;;5000787;28;20500;-59
2023/03/05 11:07:06;;;;;;;2.35;1.25;;;4.00;99.90;;;;;;5001778;28;20034;-58
2023/03/05 11:09:32;;;;;;;4.43;1.67;;;4.00;99.90;;;;;;4999429;28;20069;-59
2023/03/05 11:12:14;;;;;;;1.25;0.98;;;3.90;99.90;;;;;;5002502;28;20438;-58
2023/03/05 11:15:04;;;;;;;6.85;2.25;;;4.00;99.90;;;;;;4999729;28;20110;-59
2023/03/05 11:17:31;;;;;;;1.40;1.30;;;4.10;99.90;;;;;;5000054;28;20037;-56
2023/03/05 11:20:20;;;;;;;2.10;0.65;;;4.10;99.90;;;;;;5000553;28;20037;-60
2023/03/05 11:23:04;;;;;;;3.40;0.77;;;3.40;99.90;;;;;;5000638;28;20109;-56
2023/03/05 11:25:31;;;;;;;1.55;0.43;;;2.70;99.90;;;;;;5000424;28;20464;-56
2023/03/05 11:27:59;;;;;;;2.25;0.40;;;2.30;99.90;;;;;;5000012;28;20100;-56
2023/03/05 11:30:29;;;;;;;4.00;0.65;;;2.10;99.90;;;;;;4999276;28;20545;-58
2023/03/05 11:33:19;;;;;;;1.48;0.30;;;1.90;99.90;;;;;;4998285;28;20015;-60
2023/03/05 11:35:45;;;;;;;1.35;0.80;;;1.90;99.90;;;;;;5000872;28;20040;-58
2023/03/05 11:38:25;;;;;;;1.38;0.73;;;2.00;99.90;;;;;;4999903;28;20057;-58
2023/03/05 11:40:52;;;;;;;0.88;0.40;;;2.10;99.90;;;;;;4999568;28;20045;-60
2023/03/05 11:43:20;;;;;;;1.02;0.52;;;2.40;99.90;;;;;;5000715;28;20038;-55
2023/03/05 11:45:53;;;;;;;1.90;0.70;;;2.50;99.90;;;;;;4999243;28;20014;-59
2023/03/05 11:48:30;;;;;;;5.40;1.30;;;2.70;99.90;;;;;;5000572;28;20124;-59
2023/03/05 11:50:59;;;;;;;5.38;1.20;;;3.00;99.90;;;;;;4998799;28;20022;-59
2023/03/05 11:53:34;;;;;;;3.15;1.00;;;3.20;99.90;;;;;;5000411;28;20472;-57
2023/03/05 11:56:19;;;;;;;2.08;1.50;;;3.40;99.90;;;;;;4997949;28;20076;-60
2023/03/05 11:58:57;;;;;;;1.75;1.17;;;3.60;99.90;;;;;;4999483;28;20031;-58
2023/03/05 12:01:25;;;;;;;5.57;1.65;;;3.70;99.90;;;;;;4999810;28;20029;-59
2023/03/05 12:03:52;;;;;;;2.92;1.00;;;3.80;99.90;;;;;;5000000;28;20144;-55
2023/03/05 12:06:40;;;;;;;4.93;2.20;;;3.80;99.90;;;;;;4999801;28;20025;-58
2023/03/05 12:09:36;;;;;;;2.13;1.77;;;3.80;99.90;;;;;;4998018;28;20374;-57
2023/03/05 12:12:22;;;;;;;1.77;1.20;;;4.00;99.90;;;;;;5000745;28;20372;-56
2023/03/05 12:15:00;;;;;;;1.38;1.27;;;4.00;99.90;;;;;;4998252;28;20045;-59
2023/03/05 12:17:44;;;;;;;3.45;1.42;;;4.10;99.90;;;;;;5000043;28;20038;-57
2023/03/05 12:20:42;;;;;;;2.70;1.48;;;4.20;99.90;;;;;;4996957;28;20027;-59
2023/03/05 12:23:17;;;;;;;1.92;1.48;;;4.20;99.90;;;;;;4992976;28;20045;-60
2023/03/05 12:25:48;;;;;;;5.65;1.77;;;4.30;99.90;;;;;;4996598;28;20038;-60
2023/03/05 12:28:39;;;;;;;1.48;1.15;;;4.50;99.90;;;;;;4998733;28;20479;-58
2023/03/05 12:31:32;;;;;;;3.20;1.17;;;4.70;99.90;;;;;;4997913;28;20083;-60
2023/03/05 12:33:58;;;;;;;1.20;1.10;;;4.90;99.90;;;;;;4998147;28;20023;-56
2023/03/05 12:36:23;;;;;;;2.05;0.90;;;5.00;99.90;;;;;;4999295;28;20481;-59
2023/03/05 12:38:56;;;;;;;2.17;1.20;;;5.00;99.90;;;;;;4999237;28;20428;-58
2023/03/05 12:41:21;;;;;;;1.00;0.80;;;5.00;99.90;;;;;;5000225;28;20030;-59
2023/03/05 12:44:17;;;;;;;3.83;1.20;;;5.00;99.90;;;;;;4999531;28;20081;-60
2023/03/05 12:46:44;;;;;;;0.73;0.60;;;4.90;99.90;;;;;;4993102;28;20038;-59
2023/03/05 12:49:19;;;;;;;1.95;0.85;;;4.90;99.90;;;;;;4999844;28;20106;-59
2023/03/05 12:51:55;;;;;;;1.67;1.05;;;4.80;99.90;;;;;;4999106;28;20026;-59
2023/03/05 12:54:27;;;;;;;2.05;1.17;;;4.70;99.90;;;;;;4997273;28;20092;-59
2023/03/05 12:56:58;;;;;;;0.95;0.60;;;4.50;99.90;;;;;;4997684;28;20141;-60
2023/03/05 12:59:35;;;;;;;2.05;0.75;;;4.40;99.90;;;;;;4999045;28;20025;-58
2023/03/05 13:02:08;;;;;;;3.20;1.02;;;4.40;99.90;;;;;;4998971;28;20120;-58
2023/03/05 13:04:44;;;;;;;1.05;0.73;;;4.30;99.90;;;;;;4996139;28;20026;-59
2023/03/05 13:07:15;;;;;;;0.77;0.30;;;4.40;99.90;;;;;;4999614;28;20464;-57
2023/03/05 13:09:59;;;;;;;2.45;0.75;;;4.30;99.90;;;;;;4997771;28;20057;-59
2023/03/05 13:12:27;;;;;;;2.17;0.45;;;4.30;99.90;;;;;;4997859;28;20091;-58